Carlyle, Illinois
Current Conditions -  °F | °C
As of 12:15 AM on Monday 22 Dec 2014 (Local Time) from KENL Reporting Station
Overcast Overcast  
Wind Chill: 32°   Ceiling: 6000
Heat Index: 38°   Visibility: 10mi
Dew Point: 30°   Wind: 7mph
Humidity: 73%   Direction: 120°ESE
Pressure: 29.96"   Gusts: NA
Location:  38.61°N, 89.37°W
Report Text: KENL 220615Z AUTO 12006KT 10SM OVC060 03/M01 A2996 RMK AO2 T00311013
Loading
Personal Weather Stations






























Interactive Weather Map New forecast layout! Learn more

10-Day Weather Forecast

Advertisements
Track Severe Weather on mobile